Time;durP1;ratioP1;P1;durP2;ratioP2;P2;SDS_P1;SDS_P2;PMS_P1;PMS_P2;Temp;Humidity;BMP_temperature;BMP_pressure;BME280_temperature;BME280_humidity;BME280_pressure;Samples;Min_cycle;Max_cycle;Signal;HPM_P1;HPM_P2
2024/01/22 00:00:36;;;;;;;4.90;3.20;;;;;;;8.28;100.00;100853.47;5013094;28;20038;-84
2024/01/22 00:03:02;;;;;;;7.70;3.97;;;;;;;8.16;100.00;100842.69;5013086;28;20058;-85
2024/01/22 00:05:27;;;;;;;8.98;3.67;;;;;;;8.24;100.00;100851.63;5012727;28;20084;-85
2024/01/22 00:07:53;;;;;;;7.95;3.95;;;;;;;8.35;100.00;100834.31;5012752;28;20030;-85
2024/01/22 00:10:18;;;;;;;6.30;3.70;;;;;;;8.37;100.00;100802.78;5012978;28;20037;-84
2024/01/22 00:12:43;;;;;;;7.57;3.58;;;;;;;8.41;100.00;100820.41;5013033;28;20041;-84
2024/01/22 00:15:09;;;;;;;8.65;4.03;;;;;;;8.42;100.00;100827.44;4995301;28;20041;-85
2024/01/22 00:17:35;;;;;;;7.60;3.85;;;;;;;8.41;100.00;100821.28;5012405;28;20036;-86
2024/01/22 00:20:01;;;;;;;6.45;3.75;;;;;;;8.41;100.00;100812.50;4997896;28;20393;-85
2024/01/22 00:22:26;;;;;;;9.30;4.07;;;;;;;8.16;100.00;100777.78;5016558;28;20065;-85
2024/01/22 00:24:54;;;;;;;8.55;4.30;;;;;;;8.33;100.00;100820.22;4999328;28;20069;-85
2024/01/22 00:27:20;;;;;;;6.95;3.65;;;;;;;8.38;100.00;100815.06;5016501;28;20116;-84
2024/01/22 00:29:45;;;;;;;9.60;4.18;;;;;;;8.44;100.00;100809.94;5016181;28;20044;-85
2024/01/22 00:32:11;;;;;;;5.22;3.63;;;;;;;8.52;100.00;100788.16;5016173;28;20116;-85
2024/01/22 00:34:36;;;;;;;7.15;3.80;;;;;;;8.53;100.00;100855.75;4998431;28;20067;-85
2024/01/22 00:37:02;;;;;;;6.53;3.40;;;;;;;8.62;100.00;100772.50;5016348;28;20029;-85
2024/01/22 00:39:27;;;;;;;8.32;3.35;;;;;;;8.46;100.00;100718.69;5016300;28;20040;-85
2024/01/22 00:41:53;;;;;;;7.20;3.90;;;;;;;8.58;100.00;100754.88;4998690;28;20034;-85
2024/01/22 00:44:18;;;;;;;6.70;3.55;;;;;;;8.69;100.00;100772.66;4998603;28;20510;-85
2024/01/22 00:46:43;;;;;;;5.57;3.28;;;;;;;8.71;100.00;100744.56;5015743;28;20026;-85
2024/01/22 00:49:09;;;;;;;11.85;3.38;;;;;;;8.63;100.00;100725.13;5015871;28;20034;-85
2024/01/22 00:51:36;;;;;;;6.30;3.45;;;;;;;8.76;100.00;100734.09;4998475;28;20033;-84
2024/01/22 00:54:02;;;;;;;6.97;3.85;;;;;;;8.66;100.00;100729.56;5016003;28;20034;-85
2024/01/22 00:56:27;;;;;;;5.45;3.20;;;;;;;8.77;100.00;100738.50;5016010;28;20041;-85
2024/01/22 00:58:52;;;;;;;5.45;3.65;;;;;;;8.75;100.00;100761.31;4998475;28;20034;-84
2024/01/22 01:01:18;;;;;;;6.25;3.50;;;;;;;8.73;100.00;100734.94;5015924;28;20033;-84
2024/01/22 01:03:43;;;;;;;6.55;3.30;;;;;;;8.80;100.00;100733.28;4998209;28;20070;-84
2024/01/22 01:06:09;;;;;;;7.03;3.50;;;;;;;8.85;100.00;100707.91;4998239;28;20049;-84
2024/01/22 01:08:34;;;;;;;8.55;3.42;;;;;;;8.75;100.00;100714.78;5015809;28;20080;-84
2024/01/22 01:11:00;;;;;;;5.18;3.17;;;;;;;8.82;100.00;100728.91;5015309;28;20037;-87
2024/01/22 01:13:25;;;;;;;8.02;3.40;;;;;;;8.85;100.00;100722.81;4997897;28;20462;-85
2024/01/22 01:15:51;;;;;;;5.45;3.13;;;;;;;8.85;100.00;100799.25;5015572;28;20129;-85
2024/01/22 01:18:16;;;;;;;5.10;3.17;;;;;;;8.83;100.00;100692.94;5015343;28;20057;-84
2024/01/22 01:20:42;;;;;;;6.55;2.88;;;;;;;8.89;100.00;100701.81;5015147;28;20410;-84
2024/01/22 01:23:07;;;;;;;7.18;3.30;;;;;;;9.01;100.00;100702.00;5015130;28;20034;-84
2024/01/22 01:25:33;;;;;;;5.97;2.92;;;;;;;9.05;100.00;100736.31;5015063;28;20041;-84
2024/01/22 01:28:02;;;;;;;6.95;3.45;;;;;;;9.02;100.00;100722.22;5015226;28;20474;-84
2024/01/22 01:30:27;;;;;;;6.25;3.00;;;;;;;8.81;100.00;100653.38;4997793;28;20030;-81
2024/01/22 01:32:53;;;;;;;5.50;2.90;;;;;;;8.99;100.00;100716.94;4997728;28;20117;-83
2024/01/22 01:35:18;;;;;;;8.95;3.08;;;;;;;9.08;100.00;100683.63;4997162;28;20050;-84
2024/01/22 01:37:44;;;;;;;6.18;3.20;;;;;;;9.13;100.00;100687.25;4997636;28;20045;-85
2024/01/22 01:40:10;;;;;;;8.70;4.18;;;;;;;9.17;100.00;100663.56;5014785;28;20084;-85
2024/01/22 01:42:35;;;;;;;5.63;3.10;;;;;;;9.11;100.00;100686.31;4997488;28;20044;-85
2024/01/22 01:45:01;;;;;;;6.25;2.97;;;;;;;9.10;100.00;100650.28;4997716;28;20458;-85
2024/01/22 01:47:26;;;;;;;6.65;2.70;;;;;;;9.21;100.00;100689.13;4997295;28;20033;-85
2024/01/22 01:49:52;;;;;;;4.75;2.90;;;;;;;9.22;100.00;100655.72;5014663;28;20034;-84
2024/01/22 01:52:19;;;;;;;5.57;3.10;;;;;;;9.24;100.00;100652.22;4997510;28;20498;-84
2024/01/22 01:54:45;;;;;;;6.20;2.75;;;;;;;9.27;100.00;100664.56;5014841;28;20034;-84
2024/01/22 01:57:11;;;;;;;4.97;2.67;;;;;;;9.26;100.00;100653.16;4997188;28;20038;-85
2024/01/22 01:59:39;;;;;;;5.13;2.60;;;;;;;9.31;100.00;100665.50;5014687;28;20030;-85
2024/01/22 02:02:05;;;;;;;5.07;2.60;;;;;;;9.28;100.00;100647.88;5014653;28;20216;-84
2024/01/22 02:04:30;;;;;;;4.93;2.60;;;;;;;9.20;100.00;100628.44;4997072;28;20096;-84
2024/01/22 02:06:56;;;;;;;4.85;2.60;;;;;;;9.28;100.00;100614.50;5014550;28;20030;-84
2024/01/22 02:09:21;;;;;;;6.05;2.70;;;;;;;9.34;100.00;100628.63;5014544;28;20453;-84
2024/01/22 02:11:47;;;;;;;4.47;2.70;;;;;;;9.28;100.00;100643.50;5014101;28;20036;-86
2024/01/22 02:14:12;;;;;;;7.63;2.70;;;;;;;9.38;100.00;100639.25;5014532;28;20042;-84
2024/01/22 02:16:38;;;;;;;4.20;2.70;;;;;;;9.40;100.00;100653.31;5014479;28;20484;-84
2024/01/22 02:19:03;;;;;;;4.88;2.70;;;;;;;9.42;100.00;100622.59;5014382;28;20121;-85
2024/01/22 02:21:28;;;;;;;5.30;2.90;;;;;;;9.42;100.00;100629.59;4996875;28;20069;-84
2024/01/22 02:23:54;;;;;;;7.97;2.70;;;;;;;9.45;100.00;100627.88;5014528;28;20102;-84
2024/01/22 02:26:19;;;;;;;5.75;2.80;;;;;;;9.52;100.00;100591.91;4996496;28;20038;-83
2024/01/22 02:28:45;;;;;;;5.30;2.50;;;;;;;9.45;100.00;100656.88;5014395;28;20459;-84
2024/01/22 02:31:10;;;;;;;3.70;2.33;;;;;;;9.50;100.00;100586.59;5014178;28;20053;-85
2024/01/22 02:33:36;;;;;;;4.82;2.50;;;;;;;9.57;100.00;100589.34;5013894;28;20037;-84
2024/01/22 02:36:01;;;;;;;5.35;2.67;;;;;;;9.25;100.00;100523.97;5013797;28;20068;-85
2024/01/22 02:38:26;;;;;;;5.38;2.80;;;;;;;9.51;100.00;100547.97;5013892;28;20026;-84
2024/01/22 02:40:52;;;;;;;5.15;2.75;;;;;;;9.48;100.00;100550.56;5014167;28;20113;-84
2024/01/22 02:43:18;;;;;;;5.63;2.60;;;;;;;9.60;100.00;100555.09;4996006;28;20092;-84
2024/01/22 02:45:43;;;;;;;5.38;2.60;;;;;;;9.59;100.00;100540.97;5014127;28;20464;-84
2024/01/22 02:48:08;;;;;;;5.88;2.50;;;;;;;9.47;100.00;100523.31;5014059;28;20030;-84
2024/01/22 02:50:34;;;;;;;4.45;2.80;;;;;;;9.35;100.00;100507.34;4979887;28;20100;-85
2024/01/22 02:52:59;;;;;;;4.68;2.47;;;;;;;9.47;100.00;100509.22;5013979;28;20034;-86
2024/01/22 02:55:25;;;;;;;4.43;2.53;;;;;;;9.57;100.00;100516.34;5013722;28;20487;-85
2024/01/22 02:57:50;;;;;;;5.45;2.20;;;;;;;9.49;100.00;100492.53;4996314;28;20038;-84
2024/01/22 03:00:16;;;;;;;4.30;2.60;;;;;;;9.56;100.00;100501.41;5013792;28;20062;-84
2024/01/22 03:02:41;;;;;;;5.10;2.42;;;;;;;9.60;100.00;100504.97;5013441;28;20034;-85
2024/01/22 03:05:07;;;;;;;5.40;2.50;;;;;;;9.63;100.00;100491.78;4979910;28;20088;-86
2024/01/22 03:07:32;;;;;;;4.03;2.45;;;;;;;9.62;100.00;100497.94;5013847;28;20033;-85
2024/01/22 03:09:57;;;;;;;4.15;2.50;;;;;;;9.49;100.00;100468.81;5013771;28;20030;-86
2024/01/22 03:12:23;;;;;;;4.63;2.50;;;;;;;9.53;100.00;100504.88;4996220;28;20069;-86
2024/01/22 03:14:48;;;;;;;4.30;2.40;;;;;;;9.47;100.00;100470.56;4979947;28;20096;-84
2024/01/22 03:17:14;;;;;;;4.10;2.47;;;;;;;9.47;100.00;100472.31;4995913;28;20040;-84
2024/01/22 03:19:39;;;;;;;4.20;2.47;;;;;;;9.48;100.00;100461.75;4995496;28;20037;-85
2024/01/22 03:22:05;;;;;;;4.18;2.40;;;;;;;9.46;100.00;100463.53;5013583;28;20041;-85
2024/01/22 03:24:30;;;;;;;3.42;2.40;;;;;;;9.48;100.00;100484.63;5013555;28;20092;-84
2024/01/22 03:26:55;;;;;;;8.65;2.50;;;;;;;9.51;100.00;100460.91;4995984;28;20041;-83
2024/01/22 03:29:21;;;;;;;3.65;2.40;;;;;;;9.51;100.00;100445.97;5013353;28;20041;-82
2024/01/22 03:31:46;;;;;;;2.65;2.10;;;;;;;9.58;100.00;100456.56;5013469;28;20038;-83
2024/01/22 03:34:11;;;;;;;3.15;2.20;;;;;;;9.59;100.00;100459.19;5013246;28;20117;-84
2024/01/22 03:36:37;;;;;;;3.10;2.30;;;;;;;9.31;100.00;100397.44;5013487;28;20104;-83
2024/01/22 03:39:03;;;;;;;3.92;2.40;;;;;;;9.62;100.00;100455.72;5013137;28;20030;-83
2024/01/22 03:41:28;;;;;;;3.53;2.30;;;;;;;9.58;100.00;100488.22;5013499;28;20467;-82
2024/01/22 03:43:56;;;;;;;4.45;2.20;;;;;;;9.56;100.00;100451.28;4996106;28;20093;-83
2024/01/22 03:46:21;;;;;;;4.50;2.60;;;;;;;9.61;100.00;100453.97;5013041;28;20034;-82
2024/01/22 03:48:46;;;;;;;4.07;2.40;;;;;;;9.65;100.00;100424.09;5013140;28;20041;-83
2024/01/22 03:51:12;;;;;;;4.90;2.50;;;;;;;9.59;100.00;100431.94;4995476;28;20131;-83
2024/01/22 03:53:37;;;;;;;3.72;2.20;;;;;;;9.61;100.00;100412.63;5013803;28;20038;-83
2024/01/22 03:56:05;;;;;;;5.55;2.40;;;;;;;9.61;100.00;100439.00;5017146;28;20045;-83
2024/01/22 03:58:31;;;;;;;3.10;2.10;;;;;;;9.64;100.00;100417.06;5017122;28;20042;-83
2024/01/22 04:00:56;;;;;;;3.03;2.05;;;;;;;9.75;100.00;100420.66;5017152;28;20034;-82
2024/01/22 04:03:23;;;;;;;3.45;2.08;;;;;;;9.73;100.00;100420.66;5017016;28;20478;-83
2024/01/22 04:05:48;;;;;;;3.58;2.00;;;;;;;9.62;100.00;100401.22;4999408;28;20072;-84
2024/01/22 04:08:13;;;;;;;5.40;2.20;;;;;;;9.72;100.00;100413.63;5016972;28;20475;-84
2024/01/22 04:10:39;;;;;;;6.65;2.35;;;;;;;9.61;100.00;100403.84;5017184;28;20486;-83
2024/01/22 04:13:04;;;;;;;4.93;2.40;;;;;;;9.64;100.00;100410.03;5016599;28;20034;-83
2024/01/22 04:15:29;;;;;;;7.05;2.42;;;;;;;9.69;100.00;100416.22;4999190;28;20179;-82
2024/01/22 04:17:58;;;;;;;4.18;2.22;;;;;;;9.69;100.00;100405.66;5016234;28;20030;-82
2024/01/22 04:20:23;;;;;;;4.30;2.20;;;;;;;9.68;100.00;100409.19;5016696;28;20034;-83
2024/01/22 04:22:51;;;;;;;4.05;2.20;;;;;;;9.60;100.00;100378.34;4999166;28;20394;-83
2024/01/22 04:25:16;;;;;;;4.05;2.17;;;;;;;9.68;100.00;100403.91;5016527;28;20389;-83
2024/01/22 04:27:42;;;;;;;3.33;2.03;;;;;;;9.73;100.00;100414.50;4998946;28;20037;-83
2024/01/22 04:30:07;;;;;;;3.15;2.10;;;;;;;9.65;100.00;100380.13;4998930;28;20144;-82
2024/01/22 04:32:33;;;;;;;2.85;2.00;;;;;;;9.62;100.00;100352.84;5016780;28;20057;-82
2024/01/22 04:34:58;;;;;;;3.13;2.17;;;;;;;9.82;100.00;100398.72;5016269;28;20050;-82
2024/01/22 04:37:24;;;;;;;4.68;2.15;;;;;;;9.87;100.00;100407.53;4998911;28;20038;-83
2024/01/22 04:39:49;;;;;;;3.50;2.00;;;;;;;9.91;100.00;100382.94;4998767;28;20041;-83
2024/01/22 04:42:20;;;;;;;2.85;2.05;;;;;;;9.91;100.00;100379.41;5016017;28;20470;-83
2024/01/22 04:44:48;;;;;;;3.42;2.05;;;;;;;9.96;100.00;100393.53;5016386;28;20377;-85
2024/01/22 04:47:13;;;;;;;4.80;1.92;;;;;;;10.05;100.00;100375.09;4982416;28;20116;-83
2024/01/22 04:49:38;;;;;;;2.70;1.80;;;;;;;10.08;100.00;100384.78;4998191;28;20037;-82
2024/01/22 04:52:04;;;;;;;3.55;1.88;;;;;;;10.12;100.00;100400.66;5015813;28;20041;-83
2024/01/22 04:54:29;;;;;;;2.45;1.83;;;;;;;10.17;100.00;100390.13;4998449;28;20037;-82
2024/01/22 04:56:55;;;;;;;2.80;1.90;;;;;;;10.12;100.00;100384.81;5015780;28;20037;-82
2024/01/22 04:59:20;;;;;;;3.13;1.90;;;;;;;10.17;100.00;100391.00;4998394;28;20037;-82
2024/01/22 05:01:46;;;;;;;5.53;1.80;;;;;;;10.21;100.00;100384.84;5015959;28;20030;-83
2024/01/22 05:04:11;;;;;;;5.45;2.00;;;;;;;10.24;100.00;100355.88;5015875;28;20065;-83
2024/01/22 05:06:37;;;;;;;3.38;1.80;;;;;;;10.28;100.00;100386.69;5014877;28;20463;-83
2024/01/22 05:09:04;;;;;;;4.63;1.90;;;;;;;10.25;100.00;100377.88;4998388;28;20157;-83
2024/01/22 05:11:30;;;;;;;4.05;1.85;;;;;;;10.28;100.00;100399.91;5015791;28;20080;-83
2024/01/22 05:13:55;;;;;;;3.45;2.00;;;;;;;10.34;100.00;100377.91;5015712;28;20034;-83
2024/01/22 05:16:22;;;;;;;3.20;1.90;;;;;;;10.39;100.00;100354.16;5015373;28;20050;-83
2024/01/22 05:18:48;;;;;;;4.60;1.70;;;;;;;10.42;100.00;100370.91;5015393;28;20033;-84
2024/01/22 05:21:15;;;;;;;3.53;1.90;;;;;;;10.47;100.00;100353.31;4998099;28;20066;-84
2024/01/22 05:23:41;;;;;;;4.20;2.20;;;;;;;10.38;100.00;100353.28;5015260;28;20398;-83
2024/01/22 05:26:07;;;;;;;4.93;1.95;;;;;;;10.53;100.00;100363.91;4981574;28;20034;-82
2024/01/22 05:28:33;;;;;;;2.58;1.85;;;;;;;10.56;100.00;100360.38;4997860;28;20038;-83
2024/01/22 05:31:00;;;;;;;4.50;1.80;;;;;;;10.43;100.00;100370.00;5015399;28;20034;-84
2024/01/22 05:33:28;;;;;;;7.80;1.80;;;;;;;10.58;100.00;100353.34;5015363;28;20390;-83
2024/01/22 05:35:55;;;;;;;4.35;1.70;;;;;;;10.66;100.00;100350.69;5015298;28;20128;-83
2024/01/22 05:38:20;;;;;;;2.35;1.67;;;;;;;10.70;100.00;100368.31;4997622;28;20038;-84
2024/01/22 05:40:46;;;;;;;3.63;1.70;;;;;;;10.69;100.00;100382.44;5015184;28;20096;-84
2024/01/22 05:43:11;;;;;;;4.38;1.73;;;;;;;10.62;100.00;100355.13;5015158;28;20035;-84
2024/01/22 05:45:36;;;;;;;3.55;1.88;;;;;;;10.64;100.00;100356.00;4997451;28;20044;-83
2024/01/22 05:48:02;;;;;;;3.13;1.70;;;;;;;10.68;100.00;100356.88;5014854;28;20037;-83
2024/01/22 05:50:27;;;;;;;5.07;1.70;;;;;;;10.67;100.00;100368.34;5015022;28;20033;-83
2024/01/22 05:52:53;;;;;;;3.80;1.65;;;;;;;10.63;100.00;100370.09;5014976;28;20029;-83
2024/01/22 05:55:18;;;;;;;2.85;1.77;;;;;;;10.62;100.00;100357.75;4997506;28;20129;-83
2024/01/22 05:57:44;;;;;;;2.85;1.60;;;;;;;10.57;100.00;100372.69;5014589;28;20429;-84
2024/01/22 06:00:10;;;;;;;5.97;1.98;;;;;;;10.62;100.00;100389.47;5014547;28;20398;-84
2024/01/22 06:02:38;;;;;;;3.53;1.90;;;;;;;10.53;100.00;100390.31;5014809;28;20033;-84
2024/01/22 06:05:04;;;;;;;3.30;1.70;;;;;;;10.57;100.00;100395.59;4997125;28;20038;-84
2024/01/22 06:07:29;;;;;;;4.68;2.00;;;;;;;10.44;100.00;100398.19;5014374;28;20157;-84
2024/01/22 06:09:58;;;;;;;3.05;1.88;;;;;;;10.47;100.00;100403.50;5014692;28;20030;-83
2024/01/22 06:12:25;;;;;;;4.28;2.10;;;;;;;10.45;100.00;100399.97;4981133;28;20034;-84
2024/01/22 06:14:51;;;;;;;4.47;1.88;;;;;;;10.50;100.00;100381.50;4996819;28;20071;-84
2024/01/22 06:17:16;;;;;;;4.50;1.70;;;;;;;10.42;100.00;100394.66;4996709;28;20446;-83
2024/01/22 06:19:41;;;;;;;4.05;2.00;;;;;;;10.50;100.00;100376.22;4980545;28;20034;-81
2024/01/22 06:22:07;;;;;;;2.75;1.70;;;;;;;10.42;100.00;100367.38;5014160;28;20026;-84
2024/01/22 06:24:35;;;;;;;3.70;1.77;;;;;;;10.46;100.00;100375.31;4996893;28;20560;-84
2024/01/22 06:27:01;;;;;;;2.55;1.70;;;;;;;10.20;100.00;100339.97;5014315;28;20041;-84
2024/01/22 06:29:26;;;;;;;3.40;1.92;;;;;;;10.42;100.00;100365.63;5014010;28;20578;-83
2024/01/22 06:31:52;;;;;;;3.58;1.80;;;;;;;10.43;100.00;100384.97;5014329;28;20532;-83
2024/01/22 06:34:17;;;;;;;4.60;1.98;;;;;;;10.36;100.00;100380.53;5013793;28;20030;-82
2024/01/22 06:36:43;;;;;;;4.38;2.20;;;;;;;10.37;100.00;100372.66;4996471;28;20046;-83
2024/01/22 06:39:08;;;;;;;2.95;1.80;;;;;;;10.45;100.00;100397.34;4980303;28;20040;-84
2024/01/22 06:41:37;;;;;;;3.67;2.00;;;;;;;10.40;100.00;100393.75;5014372;28;20073;-83
2024/01/22 06:44:03;;;;;;;3.45;1.80;;;;;;;10.44;100.00;100394.66;5014089;28;20030;-84
2024/01/22 06:46:28;;;;;;;2.20;1.80;;;;;;;10.45;100.00;100402.63;4996434;28;20034;-83
2024/01/22 06:48:54;;;;;;;5.05;1.77;;;;;;;10.43;100.00;100393.78;5013514;28;20061;-83
2024/01/22 06:51:19;;;;;;;3.45;1.73;;;;;;;10.40;100.00;100398.16;5013949;28;20227;-83
2024/01/22 06:53:45;;;;;;;5.50;1.70;;;;;;;10.48;100.00;100414.94;5013924;28;20091;-84
2024/01/22 06:56:10;;;;;;;3.08;1.85;;;;;;;10.57;100.00;100419.38;4996106;28;20041;-86
2024/01/22 06:58:36;;;;;;;1.63;1.45;;;;;;;10.48;100.00;100430.78;4996248;28;20496;-84
2024/01/22 07:01:04;;;;;;;2.45;1.67;;;;;;;10.59;100.00;100422.91;5013726;28;20034;-85
2024/01/22 07:03:30;;;;;;;2.28;1.60;;;;;;;10.60;100.00;100429.97;5013741;28;20382;-81
2024/01/22 07:05:58;;;;;;;2.78;1.52;;;;;;;10.55;100.00;100426.44;4996355;28;20462;-83
2024/01/22 07:08:23;;;;;;;2.42;1.90;;;;;;;10.52;100.00;100429.91;5013948;28;20044;-82
2024/01/22 07:10:49;;;;;;;2.60;1.88;;;;;;;10.50;100.00;100411.44;4995889;28;20030;-82
2024/01/22 07:13:15;;;;;;;3.85;1.80;;;;;;;10.54;100.00;100436.13;4996122;28;20034;-82
2024/01/22 07:15:43;;;;;;;4.53;1.63;;;;;;;10.43;100.00;100403.47;5013509;28;20034;-81
2024/01/22 07:18:08;;;;;;;5.75;1.88;;;;;;;10.48;100.00;100420.22;4995687;28;20084;-82
2024/01/22 07:20:34;;;;;;;3.70;1.88;;;;;;;10.59;100.00;100429.09;4995990;28;20025;-82
2024/01/22 07:23:00;;;;;;;3.17;1.80;;;;;;;10.51;100.00;100407.03;5013507;28;20065;-82
2024/01/22 07:25:25;;;;;;;3.58;1.90;;;;;;;10.58;100.00;100421.13;5013103;28;20449;-82
2024/01/22 07:27:51;;;;;;;4.97;1.83;;;;;;;10.65;100.00;100422.94;5013306;28;20394;-82
2024/01/22 07:30:17;;;;;;;6.63;2.10;;;;;;;10.64;100.00;100413.25;4995241;28;20387;-82
2024/01/22 07:32:43;;;;;;;4.63;2.08;;;;;;;10.71;100.00;100425.59;4995819;28;20392;-82
2024/01/22 07:35:13;;;;;;;6.68;2.10;;;;;;;10.57;100.00;100412.31;5013272;28;20132;-82
2024/01/22 07:37:44;;;;;;;4.38;2.10;;;;;;;10.54;100.00;100409.69;5013359;28;20073;-82
2024/01/22 07:40:11;;;;;;;6.78;2.05;;;;;;;10.61;100.00;100413.22;5013419;28;20478;-82
2024/01/22 07:42:38;;;;;;;7.57;2.28;;;;;;;10.57;100.00;100419.38;4995510;28;20100;-82
2024/01/22 07:45:08;;;;;;;6.53;1.90;;;;;;;10.70;100.00;100429.09;4995700;28;20113;-82
2024/01/22 07:47:34;;;;;;;7.60;2.17;;;;;;;10.72;100.00;100433.53;5013231;28;20057;-82
2024/01/22 07:50:00;;;;;;;8.05;2.50;;;;;;;10.63;100.00;100416.78;5012990;28;20467;-84
2024/01/22 07:52:25;;;;;;;5.93;2.30;;;;;;;10.80;100.00;100444.13;5013111;28;20533;-82
2024/01/22 07:54:50;;;;;;;9.15;2.35;;;;;;;10.69;100.00;100436.16;5012979;28;20041;-82
2024/01/22 07:57:18;;;;;;;7.80;2.30;;;;;;;10.68;100.00;100441.44;5013009;28;20030;-81
2024/01/22 07:59:44;;;;;;;7.65;2.47;;;;;;;10.62;100.00;100429.09;4995328;28;20133;-82
2024/01/22 08:02:09;;;;;;;10.80;2.40;;;;;;;10.65;100.00;100436.13;5012866;28;20140;-81
2024/01/22 08:04:36;;;;;;;9.48;2.40;;;;;;;10.67;100.00;100432.63;5012577;28;20037;-81
2024/01/22 08:07:03;;;;;;;8.93;2.40;;;;;;;10.57;100.00;100422.88;5012559;28;20065;-81
2024/01/22 08:09:31;;;;;;;12.88;2.30;;;;;;;10.60;100.00;100419.41;4995171;28;20026;-81
2024/01/22 08:11:57;;;;;;;11.32;2.60;;;;;;;10.67;100.00;100443.22;5012874;28;20112;-83
2024/01/22 08:14:25;;;;;;;9.30;2.60;;;;;;;10.61;100.00;100434.38;5012556;28;20184;-84
2024/01/22 08:16:51;;;;;;;12.68;3.35;;;;;;;10.55;100.00;100418.50;5012743;28;20041;-82
2024/01/22 08:19:16;;;;;;;11.35;2.75;;;;;;;10.61;100.00;100444.94;4978821;28;20037;-83
2024/01/22 08:21:42;;;;;;;14.68;3.00;;;;;;;10.47;100.00;100421.97;5012719;28;20038;-81
2024/01/22 08:24:07;;;;;;;18.00;3.10;;;;;;;10.44;100.00;100410.50;5012779;28;20026;-81
2024/01/22 08:26:33;;;;;;;14.00;3.15;;;;;;;10.58;100.00;100447.56;4994651;28;20450;-81
2024/01/22 08:28:58;;;;;;;18.70;3.25;;;;;;;10.60;100.00;100465.19;5012615;28;20034;-83
2024/01/22 08:31:24;;;;;;;17.83;3.40;;;;;;;10.57;100.00;100453.72;4978702;28;20089;-84
2024/01/22 08:33:49;;;;;;;15.93;3.13;;;;;;;10.40;100.00;100430.75;4995194;28;20038;-82
2024/01/22 08:36:15;;;;;;;16.63;3.40;;;;;;;10.60;100.00;100466.94;5012466;28;20060;-82
2024/01/22 08:38:40;;;;;;;16.45;3.22;;;;;;;10.50;100.00;100450.19;5012335;28;20125;-82
2024/01/22 08:41:08;;;;;;;18.58;3.38;;;;;;;10.57;100.00;100486.31;5013527;28;20029;-81
2024/01/22 08:43:33;;;;;;;22.30;4.05;;;;;;;10.53;100.00;100463.38;4998740;28;20064;-81
2024/01/22 08:45:59;;;;;;;15.70;3.22;;;;;;;10.55;100.00;100473.97;4998438;28;20061;-80
2024/01/22 08:48:30;;;;;;;12.20;3.10;;;;;;;10.57;100.00;100488.94;4998286;28;20038;-82
2024/01/22 08:50:56;;;;;;;16.08;3.15;;;;;;;10.53;100.00;100479.22;4982337;28;20034;-82
2024/01/22 08:53:22;;;;;;;13.45;2.90;;;;;;;10.51;100.00;100473.94;5015870;28;20076;-79
2024/01/22 08:55:47;;;;;;;8.88;2.63;;;;;;;10.51;100.00;100466.03;4998180;28;20101;-81
2024/01/22 08:58:13;;;;;;;13.40;3.10;;;;;;;10.58;100.00;100485.44;4998145;28;20033;-81
2024/01/22 09:00:39;;;;;;;16.35;3.15;;;;;;;10.46;100.00;100470.41;4998219;28;20382;-80
2024/01/22 09:03:04;;;;;;;14.05;3.35;;;;;;;10.51;100.00;100473.94;5015585;28;20041;-80
2024/01/22 09:05:30;;;;;;;13.70;2.80;;;;;;;10.58;100.00;100484.53;5015631;28;20034;-81
2024/01/22 09:07:55;;;;;;;11.02;2.60;;;;;;;10.58;100.00;100492.47;4998067;28;20120;-82
2024/01/22 09:10:21;;;;;;;13.82;2.78;;;;;;;10.49;100.00;100473.06;4998151;28;20038;-81
2024/01/22 09:12:48;;;;;;;17.63;3.30;;;;;;;10.53;100.00;100484.50;4997852;28;20073;-82
2024/01/22 09:15:17;;;;;;;13.07;3.40;;;;;;;10.42;100.00;100451.91;4981811;28;20034;-82
2024/01/22 09:17:43;;;;;;;15.57;3.53;;;;;;;10.39;100.00;100459.81;5015243;28;20026;-81
2024/01/22 09:20:10;;;;;;;15.52;3.00;;;;;;;10.43;100.00;100464.22;5015386;28;20041;-80
2024/01/22 09:22:35;;;;;;;11.90;2.72;;;;;;;10.42;100.00;100470.38;5015009;28;20111;-81
2024/01/22 09:25:01;;;;;;;14.43;3.25;;;;;;;10.40;100.00;100472.13;5015076;28;20068;-82
2024/01/22 09:27:26;;;;;;;20.58;3.97;;;;;;;10.36;100.00;100473.84;4997616;28;20136;-82
2024/01/22 09:29:52;;;;;;;18.33;3.35;;;;;;;10.32;100.00;100456.25;5015213;28;20033;-81
2024/01/22 09:32:18;;;;;;;12.50;3.33;;;;;;;10.38;100.00;100479.16;5015261;28;20034;-82
2024/01/22 09:34:44;;;;;;;12.73;2.75;;;;;;;10.27;100.00;100450.03;5014678;28;20100;-80
2024/01/22 09:37:09;;;;;;;17.38;3.42;;;;;;;10.41;100.00;100466.88;5015185;28;20430;-80
2024/01/22 09:39:35;;;;;;;11.13;2.63;;;;;;;10.44;100.00;100463.34;5015138;28;20042;-81
2024/01/22 09:42:01;;;;;;;13.38;3.17;;;;;;;10.38;100.00;100474.75;5014752;28;20128;-81
2024/01/22 09:44:27;;;;;;;12.80;2.95;;;;;;;10.36;100.00;100470.34;5015054;28;20053;-81
2024/01/22 09:46:53;;;;;;;12.57;2.70;;;;;;;10.39;100.00;100475.66;4997140;28;20057;-81
2024/01/22 09:49:19;;;;;;;8.40;2.28;;;;;;;10.39;100.00;100486.22;4997099;28;20030;-80
2024/01/22 09:51:45;;;;;;;12.02;2.88;;;;;;;10.41;100.00;100480.06;4997023;28;20041;-81
2024/01/22 09:54:19;;;;;;;9.82;2.58;;;;;;;10.42;100.00;100483.59;5014677;28;20484;-81
2024/01/22 09:56:54;;;;;;;10.82;2.58;;;;;;;10.45;100.00;100499.47;5014882;28;20129;-80
2024/01/22 09:59:24;;;;;;;11.40;2.70;;;;;;;10.41;100.00;100493.28;5014766;28;20072;-81
2024/01/22 10:01:52;;;;;;;10.80;2.40;;;;;;;10.28;100.00;100473.84;5014343;28;20030;-82
2024/01/22 10:04:18;;;;;;;9.70;2.58;;;;;;;10.45;100.00;100499.47;5014544;28;20462;-82
2024/01/22 10:06:46;;;;;;;8.38;2.42;;;;;;;10.52;100.00;100510.06;5014348;28;20057;-80
2024/01/22 10:09:15;;;;;;;8.13;2.35;;;;;;;10.50;100.00;100511.81;4996740;28;20450;-82
2024/01/22 10:11:47;;;;;;;8.73;2.55;;;;;;;10.45;100.00;100521.47;5014416;28;20030;-82
2024/01/22 10:14:12;;;;;;;8.82;2.50;;;;;;;10.56;100.00;100531.22;5014169;28;20030;-83
2024/01/22 10:16:38;;;;;;;7.50;2.95;;;;;;;10.46;100.00;100568.16;4996734;28;20171;-82
2024/01/22 10:19:08;;;;;;;9.63;2.50;;;;;;;10.35;100.00;100585.66;5013853;28;20076;-81
2024/01/22 10:21:38;;;;;;;8.18;2.15;;;;;;;10.15;100.00;100587.22;5014228;28;20033;-80
2024/01/22 10:24:06;;;;;;;10.68;2.58;;;;;;;9.89;100.00;100593.19;4996728;28;20026;-80
2024/01/22 10:26:32;;;;;;;9.68;2.60;;;;;;;9.76;100.00;100610.66;4996487;28;20091;-80
2024/01/22 10:29:30;;;;;;;14.18;3.13;;;;;;;9.63;100.00;100621.03;4996687;28;20034;-81
2024/01/22 10:32:01;;;;;;;11.13;2.80;;;;;;;9.52;100.00;100616.53;4980639;28;20081;-84
2024/01/22 10:34:40;;;;;;;13.45;3.00;;;;;;;9.48;100.00;100634.97;4996129;28;20061;-84
2024/01/22 10:37:07;;;;;;;14.15;3.00;;;;;;;9.43;100.00;100632.25;5013772;28;20398;-83
2024/01/22 10:39:37;;;;;;;15.15;2.92;;;;;;;9.37;100.00;100620.75;5013907;28;20467;-84
2024/01/22 10:42:16;;;;;;;20.00;3.55;;;;;;;9.34;100.00;100628.63;5014196;28;20112;-84
2024/01/22 10:44:48;;;;;;;20.35;3.55;;;;;;;9.34;100.00;100626.88;5013925;28;20040;-84
2024/01/22 10:47:15;;;;;;;23.48;4.10;;;;;;;9.30;100.00;100632.09;4996344;28;20091;-84
2024/01/22 10:49:44;;;;;;;22.13;3.90;;;;;;;9.31;100.00;100632.13;4996034;28;20034;-83
2024/01/22 10:52:10;;;;;;;16.77;3.60;;;;;;;9.28;100.00;100630.31;4979851;28;20037;-83
2024/01/22 10:54:37;;;;;;;26.98;4.45;;;;;;;9.24;100.00;100636.41;5013339;28;20455;-82
2024/01/22 10:57:04;;;;;;;34.78;4.97;;;;;;;9.18;100.00;100623.16;4979797;28;20048;-83
2024/01/22 10:59:40;;;;;;;20.35;4.13;;;;;;;9.12;100.00;100606.38;5013575;28;20030;-83
2024/01/22 11:02:26;;;;;;;26.05;4.28;;;;;;;9.30;100.00;100634.75;5013412;28;20022;-83
2024/01/22 11:05:02;;;;;;;26.75;4.40;;;;;;;9.28;100.00;100627.69;5002121;28;20478;-84
2024/01/22 11:07:31;;;;;;;21.52;4.60;;;;;;;9.26;100.00;100624.16;5013132;28;20030;-84
2024/01/22 11:10:01;;;;;;;24.52;3.92;;;;;;;9.27;100.00;100625.03;5013151;28;20398;-84
2024/01/22 11:12:33;;;;;;;26.75;5.88;;;;;;;9.39;100.00;100646.28;5013095;28;20458;-85
2024/01/22 11:15:02;;;;;;;30.63;4.72;;;;;;;9.34;100.00;100633.91;4995976;28;20044;-85